Time;durP1;ratioP1;P1;durP2;ratioP2;P2;SDS_P1;SDS_P2;PMS_P1;PMS_P2;Temp;Humidity;BMP_temperature;BMP_pressure;BME280_temperature;BME280_humidity;BME280_pressure;Samples;Min_cycle;Max_cycle;Signal;HPM_P1;HPM_P2
2022/08/01 00:01:13;;;;;;;3.33;2.10;;;24.20;61.90;;;;;;5021961;28;20137;-48
2022/08/01 00:03:40;;;;;;;2.95;2.53;;;24.10;62.20;;;;;;5033805;28;20033;-49
2022/08/01 00:06:07;;;;;;;2.45;2.25;;;24.10;62.40;;;;;;5030708;28;20033;-51
2022/08/01 00:08:38;;;;;;;2.45;2.25;;;24.10;62.40;;;;;;5033469;28;20478;-51
2022/08/01 00:11:08;;;;;;;1.92;1.80;;;24.10;62.60;;;;;;5024643;28;20096;-48
2022/08/01 00:13:39;;;;;;;2.10;1.90;;;24.00;62.70;;;;;;5033696;28;20033;-49
2022/08/01 00:16:11;;;;;;;2.50;1.58;;;24.10;62.70;;;;;;5020469;28;20038;-50
2022/08/01 00:18:45;;;;;;;2.88;1.83;;;24.00;62.50;;;;;;5033226;28;20038;-52
2022/08/01 00:21:11;;;;;;;1.90;1.65;;;24.10;63.00;;;;;;4990939;28;20040;-47
2022/08/01 00:23:38;;;;;;;3.03;2.15;;;24.00;62.60;;;;;;5033325;28;20052;-49
2022/08/01 00:26:05;;;;;;;2.33;2.00;;;24.00;62.70;;;;;;5027176;28;20089;-48
2022/08/01 00:28:32;;;;;;;2.00;1.85;;;24.00;62.80;;;;;;5027992;28;20033;-48
2022/08/01 00:31:01;;;;;;;3.40;1.88;;;24.00;62.90;;;;;;5028837;28;20096;-53
2022/08/01 00:33:28;;;;;;;2.47;2.08;;;24.00;63.20;;;;;;5030135;28;20041;-47
2022/08/01 00:35:54;;;;;;;2.00;1.80;;;24.00;63.20;;;;;;5028504;28;20037;-50
2022/08/01 00:38:21;;;;;;;2.08;1.88;;;24.00;63.20;;;;;;5021607;28;20033;-50
2022/08/01 00:40:53;;;;;;;4.45;2.30;;;24.00;63.20;;;;;;5029012;28;20116;-49
2022/08/01 00:43:20;;;;;;;3.67;2.28;;;24.00;63.10;;;;;;5032071;28;20045;-52
2022/08/01 00:45:49;;;;;;;2.63;2.03;;;24.00;63.20;;;;;;5029544;28;20042;-50
2022/08/01 00:48:15;;;;;;;2.28;2.08;;;24.00;63.30;;;;;;5024501;28;20030;-48
2022/08/01 00:50:42;;;;;;;4.63;2.85;;;24.00;63.30;;;;;;5032612;28;20045;-50
2022/08/01 00:53:13;;;;;;;3.05;2.10;;;24.00;63.30;;;;;;5025643;28;20064;-51
2022/08/01 00:55:46;;;;;;;2.53;2.08;;;24.00;63.40;;;;;;5029863;28;20041;-50
2022/08/01 00:58:13;;;;;;;2.63;2.15;;;23.90;63.40;;;;;;5024215;28;20050;-51
2022/08/01 01:00:40;;;;;;;2.35;2.00;;;24.00;63.40;;;;;;5032370;28;20120;-48
2022/08/01 01:03:23;;;;;;;3.17;2.50;;;23.90;63.30;;;;;;5030652;28;20441;-49
2022/08/01 01:06:34;;;;;;;3.33;2.10;;;23.90;63.30;;;;;;5028466;28;20099;-48
2022/08/01 01:09:24;;;;;;;1.67;1.45;;;24.00;63.60;;;;;;5030224;28;20041;-51
2022/08/01 01:12:20;;;;;;;2.97;2.00;;;24.00;63.70;;;;;;4999599;28;20041;-49
2022/08/01 01:15:24;;;;;;;3.33;2.10;;;23.90;63.50;;;;;;5022147;28;20103;-51
2022/08/01 01:17:57;;;;;;;2.95;2.00;;;23.90;63.70;;;;;;4975276;28;20054;-51
2022/08/01 01:20:30;;;;;;;1.98;1.88;;;23.90;63.60;;;;;;5031324;28;20039;-52
2022/08/01 01:23:19;;;;;;;2.13;1.95;;;23.90;63.60;;;;;;5031258;28;20033;-51
2022/08/01 01:26:21;;;;;;;1.77;1.63;;;23.80;63.70;;;;;;5023522;28;20037;-47
2022/08/01 01:29:10;;;;;;;2.78;2.05;;;23.90;63.80;;;;;;5031350;28;20048;-49
2022/08/01 01:31:57;;;;;;;2.22;1.90;;;23.90;63.90;;;;;;5018249;28;20041;-47
2022/08/01 01:34:34;;;;;;;4.30;1.70;;;23.80;63.80;;;;;;5031558;28;20033;-51
2022/08/01 01:37:06;;;;;;;2.10;1.90;;;23.80;64.00;;;;;;5023181;28;20437;-52
2022/08/01 01:39:34;;;;;;;3.13;2.53;;;23.80;63.80;;;;;;5031447;28;20041;-47
2022/08/01 01:42:04;;;;;;;2.50;2.30;;;23.80;63.90;;;;;;5027313;28;20060;-49
2022/08/01 01:44:32;;;;;;;2.03;1.65;;;23.80;64.00;;;;;;5026877;28;20073;-51
2022/08/01 01:47:02;;;;;;;2.90;1.90;;;23.80;64.00;;;;;;5028985;28;20042;-49
2022/08/01 01:49:32;;;;;;;2.10;2.00;;;23.80;64.10;;;;;;5025969;28;20052;-52
2022/08/01 01:52:01;;;;;;;2.63;1.92;;;23.80;64.10;;;;;;5030369;28;20052;-48
2022/08/01 01:54:34;;;;;;;7.03;1.98;;;23.80;64.10;;;;;;5023303;28;20045;-50
2022/08/01 01:57:06;;;;;;;3.30;2.22;;;23.80;64.30;;;;;;5012381;28;20061;-49
2022/08/01 01:59:38;;;;;;;2.65;2.38;;;23.80;64.20;;;;;;5014064;28;20041;-51
2022/08/01 02:02:10;;;;;;;3.55;2.40;;;23.80;64.30;;;;;;5023007;28;20397;-48
2022/08/01 02:04:42;;;;;;;6.18;2.42;;;23.80;64.40;;;;;;5031331;28;20046;-50
2022/08/01 02:07:14;;;;;;;3.25;2.83;;;23.80;64.30;;;;;;5025289;28;20037;-51
2022/08/01 02:09:42;;;;;;;2.67;2.42;;;23.80;64.30;;;;;;5026569;28;20096;-48
2022/08/01 02:12:12;;;;;;;3.90;3.42;;;23.80;64.20;;;;;;5021550;28;20052;-50
2022/08/01 02:14:53;;;;;;;3.90;2.92;;;23.80;64.30;;;;;;5026258;28;20033;-48
2022/08/01 02:17:24;;;;;;;4.28;3.42;;;23.80;64.80;;;;;;5016799;28;20044;-48
2022/08/01 02:19:53;;;;;;;3.20;2.90;;;23.80;64.60;;;;;;5030817;28;20044;-47
2022/08/01 02:22:29;;;;;;;4.53;3.47;;;23.70;64.60;;;;;;5023206;28;20120;-50
2022/08/01 02:25:19;;;;;;;4.28;3.88;;;23.70;65.00;;;;;;5030543;28;20037;-50
2022/08/01 02:28:07;;;;;;;4.78;3.30;;;23.70;65.10;;;;;;5011682;28;20049;-51
2022/08/01 02:30:42;;;;;;;3.75;3.38;;;23.60;65.00;;;;;;5022818;28;20034;-51
2022/08/01 02:33:16;;;;;;;3.05;2.65;;;23.60;64.90;;;;;;5023209;28;20513;-51
2022/08/01 02:35:46;;;;;;;3.95;2.78;;;23.60;65.00;;;;;;5023799;28;20049;-50
2022/08/01 02:38:43;;;;;;;4.22;3.33;;;23.50;65.20;;;;;;5011380;28;20065;-50
2022/08/01 02:41:15;;;;;;;3.60;3.30;;;23.60;65.80;;;;;;5018365;28;20065;-52
2022/08/01 02:43:52;;;;;;;4.85;4.07;;;23.50;65.60;;;;;;5029974;28;20037;-51
2022/08/01 02:46:28;;;;;;;7.70;4.53;;;23.50;65.60;;;;;;5025575;28;20044;-47
2022/08/01 02:49:00;;;;;;;5.35;3.58;;;23.50;65.70;;;;;;5044292;22;20789;-51
2022/08/01 02:51:29;;;;;;;4.75;3.72;;;23.40;65.80;;;;;;5034610;28;20038;-51
2022/08/01 02:53:58;;;;;;;5.85;3.50;;;23.40;65.70;;;;;;5044372;28;20116;-50
2022/08/01 02:56:34;;;;;;;4.03;3.63;;;23.40;66.50;;;;;;5042788;28;20040;-50
2022/08/01 02:59:09;;;;;;;4.57;3.45;;;23.40;65.90;;;;;;5050403;28;20036;-51
2022/08/01 03:01:41;;;;;;;4.88;3.50;;;23.40;66.10;;;;;;5036779;28;20418;-49
2022/08/01 03:04:14;;;;;;;4.03;3.58;;;23.40;66.20;;;;;;5039450;28;20117;-50
2022/08/01 03:06:41;;;;;;;6.32;4.70;;;23.40;66.30;;;;;;5037532;28;20125;-53
2022/08/01 03:09:14;;;;;;;4.25;3.53;;;23.30;66.20;;;;;;5040806;28;20041;-50
2022/08/01 03:11:45;;;;;;;4.38;3.97;;;23.40;66.60;;;;;;5050184;28;20045;-50
2022/08/01 03:14:13;;;;;;;4.80;4.05;;;23.30;66.30;;;;;;5034296;28;20041;-52
2022/08/01 03:16:42;;;;;;;3.88;3.40;;;23.30;66.50;;;;;;5038369;28;20037;-50
2022/08/01 03:19:15;;;;;;;4.78;4.38;;;23.30;66.60;;;;;;5049141;28;20394;-50
2022/08/01 03:21:46;;;;;;;6.53;4.88;;;23.30;66.80;;;;;;5047302;28;20052;-54
2022/08/01 03:24:18;;;;;;;5.85;4.85;;;23.30;66.70;;;;;;5031102;28;20061;-55
2022/08/01 03:26:45;;;;;;;7.97;5.87;;;23.40;67.00;;;;;;5041227;28;20736;-51
2022/08/01 03:29:19;;;;;;;6.53;5.80;;;23.40;66.70;;;;;;5048883;28;20037;-53
2022/08/01 03:31:48;;;;;;;8.38;7.03;;;23.40;66.80;;;;;;5026091;28;20038;-54
2022/08/01 03:34:16;;;;;;;8.07;6.03;;;23.40;66.80;;;;;;5035350;28;20041;-54
2022/08/01 03:37:07;;;;;;;8.80;6.38;;;23.40;66.70;;;;;;5044624;28;20033;-55
2022/08/01 03:39:44;;;;;;;7.75;6.60;;;23.40;67.10;;;;;;5047918;28;20505;-52
2022/08/01 03:42:25;;;;;;;8.38;6.68;;;23.40;67.00;;;;;;5020434;28;20096;-54
2022/08/01 03:44:59;;;;;;;8.02;7.22;;;23.40;67.20;;;;;;5035909;28;20049;-55
2022/08/01 03:47:31;;;;;;;8.95;8.05;;;23.40;67.10;;;;;;5035024;28;20072;-53
2022/08/01 03:49:59;;;;;;;8.32;7.10;;;23.40;66.90;;;;;;5033328;28;20095;-54
2022/08/01 03:52:30;;;;;;;9.02;7.22;;;23.40;66.80;;;;;;5036180;28;20037;-55
2022/08/01 03:55:04;;;;;;;8.80;7.85;;;23.40;67.10;;;;;;5037683;28;20494;-50
2022/08/01 03:57:34;;;;;;;11.25;7.45;;;23.40;67.10;;;;;;5031194;28;20087;-53
2022/08/01 04:00:09;;;;;;;11.73;7.82;;;23.30;66.80;;;;;;5033125;28;20087;-55
2022/08/01 04:02:41;;;;;;;8.60;7.35;;;23.40;67.00;;;;;;5017330;28;20100;-51
2022/08/01 04:05:11;;;;;;;9.57;7.93;;;23.30;67.00;;;;;;5044348;28;20068;-55
2022/08/01 04:07:40;;;;;;;9.00;7.38;;;23.30;67.10;;;;;;5033672;28;20041;-53
2022/08/01 04:10:07;;;;;;;10.25;7.38;;;23.30;67.20;;;;;;5032921;28;20045;-54
2022/08/01 04:12:34;;;;;;;9.52;7.60;;;23.30;67.30;;;;;;5036469;28;20042;-53
2022/08/01 04:15:00;;;;;;;10.77;8.52;;;23.30;67.40;;;;;;5035898;28;20033;-55
2022/08/01 04:17:27;;;;;;;9.95;7.97;;;23.30;67.50;;;;;;5044157;28;20567;-55
2022/08/01 04:19:54;;;;;;;10.27;8.32;;;23.30;67.50;;;;;;5040283;28;20837;-53
2022/08/01 04:22:23;;;;;;;11.07;8.27;;;23.30;67.50;;;;;;5033595;28;20038;-53
2022/08/01 04:24:56;;;;;;;11.65;8.90;;;23.30;67.50;;;;;;5034130;28;20045;-55
2022/08/01 04:27:30;;;;;;;12.15;9.50;;;23.30;67.60;;;;;;5030352;28;20041;-53
2022/08/01 04:30:22;;;;;;;11.38;8.30;;;23.30;67.60;;;;;;5031431;28;20045;-53
2022/08/01 04:32:50;;;;;;;10.98;8.73;;;23.30;67.60;;;;;;5025559;28;20041;-54
2022/08/01 04:35:24;;;;;;;11.35;8.82;;;23.30;67.50;;;;;;5033157;28;20065;-51
2022/08/01 04:38:14;;;;;;;;;;;23.30;67.50;;;;;;5016261;28;20049;-51
2022/08/01 04:40:45;;;;;;;10.07;7.18;;;23.40;67.10;;;;;;5044284;28;19963;-51
2022/08/01 04:43:12;;;;;;;9.82;8.15;;;23.40;67.00;;;;;;5042559;28;20065;-54
2022/08/01 04:45:43;;;;;;;12.40;10.32;;;23.40;67.30;;;;;;5033456;28;20095;-52
2022/08/01 04:48:10;;;;;;;11.18;8.25;;;23.40;67.50;;;;;;5031639;28;20092;-52
2022/08/01 04:50:41;;;;;;;9.90;8.85;;;23.40;67.50;;;;;;5027155;28;20049;-54
2022/08/01 04:53:16;;;;;;;14.65;9.73;;;23.40;67.60;;;;;;5033450;28;20095;-54
2022/08/01 04:55:45;;;;;;;10.32;8.27;;;23.40;67.90;;;;;;5029229;28;20045;-52
2022/08/01 04:58:13;;;;;;;11.35;8.00;;;23.40;67.70;;;;;;5018641;28;20050;-53
2022/08/01 05:00:47;;;;;;;9.38;8.38;;;23.40;67.80;;;;;;5041951;28;20087;-52
2022/08/01 05:03:14;;;;;;;12.27;8.23;;;23.40;67.70;;;;;;5052339;28;20580;-50
2022/08/01 05:05:41;;;;;;;9.55;8.05;;;23.50;67.80;;;;;;5016998;28;20044;-54
2022/08/01 05:08:10;;;;;;;10.60;9.25;;;23.40;67.80;;;;;;5039821;28;20106;-54
2022/08/01 05:10:39;;;;;;;10.95;8.98;;;23.50;67.80;;;;;;5030776;28;20111;-52
2022/08/01 05:13:06;;;;;;;11.98;8.90;;;23.50;67.80;;;;;;5025820;28;20092;-54
2022/08/01 05:15:43;;;;;;;8.73;7.70;;;23.50;67.70;;;;;;5030710;28;20108;-53
2022/08/01 05:18:10;;;;;;;10.63;9.48;;;23.50;67.70;;;;;;5034016;28;20045;-53
2022/08/01 05:20:41;;;;;;;11.10;9.30;;;23.50;67.70;;;;;;5025714;28;20543;-52
2022/08/01 05:23:08;;;;;;;12.85;10.23;;;23.60;67.60;;;;;;5036282;28;20053;-51
2022/08/01 05:25:38;;;;;;;13.05;11.23;;;23.60;67.50;;;;;;5041821;28;20422;-54
2022/08/01 05:28:23;;;;;;;11.98;10.68;;;23.60;67.40;;;;;;5050652;28;20114;-55
2022/08/01 05:30:54;;;;;;;13.70;12.07;;;23.60;67.20;;;;;;5039779;28;20072;-53
2022/08/01 05:33:21;;;;;;;16.75;11.85;;;23.60;67.10;;;;;;5027876;28;20098;-57
2022/08/01 05:35:48;;;;;;;13.95;11.32;;;23.60;67.10;;;;;;5035985;28;20053;-52
2022/08/01 05:38:16;;;;;;;11.40;9.95;;;23.60;67.20;;;;;;5038448;28;20079;-54
2022/08/01 05:40:45;;;;;;;14.80;11.93;;;23.60;67.30;;;;;;5032439;28;20109;-52
2022/08/01 05:43:12;;;;;;;14.00;10.88;;;23.60;67.40;;;;;;5025803;28;20108;-55
2022/08/01 05:45:41;;;;;;;13.93;11.73;;;23.60;67.40;;;;;;5039215;28;20033;-51
2022/08/01 05:48:08;;;;;;;16.42;11.15;;;23.60;67.40;;;;;;5039451;28;20091;-52
2022/08/01 05:50:47;;;;;;;13.77;11.43;;;23.60;67.40;;;;;;5032040;28;20046;-54
2022/08/01 05:53:16;;;;;;;15.80;11.00;;;23.70;67.30;;;;;;5037931;28;20053;-53
2022/08/01 05:55:43;;;;;;;13.77;10.90;;;23.70;67.30;;;;;;5041367;28;20040;-51
2022/08/01 05:58:10;;;;;;;16.40;11.75;;;23.70;67.20;;;;;;5041640;28;20483;-50
2022/08/01 06:00:40;;;;;;;16.10;11.38;;;23.70;67.30;;;;;;5047266;28;20409;-51
2022/08/01 06:03:07;;;;;;;14.15;12.13;;;23.80;67.30;;;;;;5036729;28;20049;-54
2022/08/01 06:05:36;;;;;;;14.07;11.55;;;23.80;67.20;;;;;;5042672;28;20037;-54
2022/08/01 06:08:03;;;;;;;16.10;11.85;;;23.80;67.00;;;;;;5014375;28;20065;-51
2022/08/01 06:10:30;;;;;;;13.95;11.23;;;23.80;66.80;;;;;;5035093;28;20041;-54
2022/08/01 06:12:57;;;;;;;13.38;10.07;;;23.90;66.80;;;;;;5035833;28;20095;-52
2022/08/01 06:15:26;;;;;;;13.18;10.77;;;23.90;66.70;;;;;;5043418;28;20037;-54
2022/08/01 06:17:54;;;;;;;13.73;10.82;;;23.90;66.50;;;;;;5031551;28;20037;-53
2022/08/01 06:20:23;;;;;;;12.30;9.70;;;23.90;66.50;;;;;;5026106;28;20572;-51
2022/08/01 06:22:54;;;;;;;11.82;9.68;;;24.00;66.30;;;;;;5040661;28;20041;-50
2022/08/01 06:25:22;;;;;;;14.05;10.52;;;24.00;66.10;;;;;;5028067;28;20456;-51
2022/08/01 06:27:49;;;;;;;12.63;10.65;;;24.00;66.00;;;;;;5039808;28;20099;-51
2022/08/01 06:30:16;;;;;;;12.23;9.70;;;24.00;66.00;;;;;;5027752;28;20564;-51
2022/08/01 06:32:44;;;;;;;12.68;9.68;;;24.00;66.00;;;;;;5030557;28;20038;-53
2022/08/01 06:35:18;;;;;;;13.52;10.00;;;24.10;66.10;;;;;;5044468;28;20034;-51
2022/08/01 06:37:46;;;;;;;12.30;10.95;;;24.10;66.00;;;;;;5028828;28;20049;-53
2022/08/01 06:40:17;;;;;;;13.77;9.10;;;24.20;65.90;;;;;;5042406;28;20509;-54
2022/08/01 06:42:46;;;;;;;11.45;10.05;;;24.20;65.70;;;;;;5043912;28;20044;-51
2022/08/01 06:45:22;;;;;;;11.93;10.52;;;24.20;65.80;;;;;;5029883;28;20103;-57
2022/08/01 06:47:52;;;;;;;12.98;10.38;;;24.30;65.30;;;;;;5026574;28;20774;-53
2022/08/01 06:50:21;;;;;;;11.55;10.02;;;24.40;65.40;;;;;;5029901;28;20033;-51
2022/08/01 06:52:50;;;;;;;10.85;9.57;;;24.40;65.00;;;;;;5042533;28;20037;-50
2022/08/01 06:55:20;;;;;;;11.90;9.57;;;24.50;65.10;;;;;;5034953;28;20092;-52
2022/08/01 06:57:51;;;;;;;10.90;9.63;;;24.50;64.80;;;;;;5030998;28;20044;-50
2022/08/01 07:00:22;;;;;;;12.20;9.88;;;24.60;65.30;;;;;;5045351;28;20033;-55
2022/08/01 07:02:55;;;;;;;14.68;9.55;;;24.70;64.60;;;;;;5046771;28;20087;-51
2022/08/01 07:05:23;;;;;;;12.10;9.80;;;24.80;64.30;;;;;;5035742;28;20045;-51
2022/08/01 07:07:50;;;;;;;10.40;9.35;;;24.80;64.10;;;;;;5027624;28;20057;-55
2022/08/01 07:10:22;;;;;;;13.05;8.77;;;24.90;64.20;;;;;;5038751;28;20037;-54
2022/08/01 07:12:49;;;;;;;10.25;8.50;;;24.90;63.80;;;;;;5030453;28;20116;-55
2022/08/01 07:15:26;;;;;;;7.82;6.65;;;24.90;63.30;;;;;;5029797;28;20092;-50
2022/08/01 07:17:53;;;;;;;8.57;6.68;;;25.00;62.90;;;;;;5030618;28;20418;-53
2022/08/01 07:20:21;;;;;;;6.72;5.70;;;24.90;62.60;;;;;;5040167;28;20485;-50
2022/08/01 07:22:52;;;;;;;12.48;7.43;;;24.90;62.30;;;;;;5046503;28;20033;-54
2022/08/01 07:25:22;;;;;;;7.57;6.32;;;25.00;62.30;;;;;;5047558;28;20049;-56
2022/08/01 07:27:49;;;;;;;6.35;5.68;;;24.90;62.00;;;;;;5031930;28;20087;-50
2022/08/01 07:30:15;;;;;;;6.88;5.47;;;24.90;62.00;;;;;;5037357;28;20044;-54
2022/08/01 07:32:42;;;;;;;7.35;6.00;;;24.90;62.30;;;;;;5039591;28;20120;-51
2022/08/01 07:35:11;;;;;;;7.45;6.35;;;24.80;62.30;;;;;;5032554;28;20046;-52
2022/08/01 07:37:38;;;;;;;8.93;7.40;;;24.80;62.20;;;;;;5041894;28;20033;-54
2022/08/01 07:40:18;;;;;;;7.05;5.95;;;24.80;62.20;;;;;;5045604;28;20496;-51
2022/08/01 07:42:47;;;;;;;8.32;6.35;;;24.80;62.30;;;;;;5038972;28;20038;-53
2022/08/01 07:45:15;;;;;;;7.03;6.05;;;24.80;62.50;;;;;;5031044;28;20075;-51
2022/08/01 07:47:42;;;;;;;8.75;6.40;;;24.80;62.60;;;;;;5032988;28;20452;-51
2022/08/01 07:50:12;;;;;;;8.52;7.55;;;24.80;62.80;;;;;;5039078;28;20041;-54
2022/08/01 07:52:42;;;;;;;7.90;7.03;;;24.90;62.40;;;;;;5045945;28;20036;-55
2022/08/01 07:55:10;;;;;;;9.18;6.70;;;25.00;62.60;;;;;;5054429;28;20497;-54
2022/08/01 07:57:41;;;;;;;9.00;7.40;;;25.00;62.40;;;;;;5039640;28;20041;-50
2022/08/01 08:00:11;;;;;;;8.50;6.97;;;25.10;62.40;;;;;;5048125;28;20049;-54
2022/08/01 08:02:43;;;;;;;10.27;8.52;;;25.20;62.00;;;;;;5049066;28;20565;-51
2022/08/01 08:05:11;;;;;;;10.70;8.88;;;25.30;61.70;;;;;;5039477;28;20041;-54
2022/08/01 08:07:43;;;;;;;9.52;8.57;;;25.30;61.50;;;;;;5045737;28;20045;-50
2022/08/01 08:10:15;;;;;;;8.80;7.78;;;25.40;61.60;;;;;;5045572;28;20124;-54
2022/08/01 08:12:41;;;;;;;11.25;8.25;;;25.50;61.60;;;;;;5046606;28;20513;-55
2022/08/01 08:15:10;;;;;;;7.75;6.90;;;25.60;61.20;;;;;;5040872;28;20091;-53
2022/08/01 08:17:44;;;;;;;8.82;7.25;;;25.60;60.50;;;;;;5045495;28;20045;-51
2022/08/01 08:20:26;;;;;;;8.35;7.57;;;25.60;60.00;;;;;;5038688;28;20084;-54
2022/08/01 08:22:54;;;;;;;9.07;7.72;;;25.60;59.70;;;;;;5027582;28;20429;-53
2022/08/01 08:25:23;;;;;;;9.00;7.30;;;25.60;59.60;;;;;;5041025;28;20114;-53
2022/08/01 08:27:55;;;;;;;8.50;7.47;;;25.60;59.40;;;;;;5045530;28;20086;-51
2022/08/01 08:30:28;;;;;;;10.57;8.13;;;25.60;59.50;;;;;;5053465;28;20547;-51
2022/08/01 08:32:59;;;;;;;9.95;7.63;;;25.60;59.60;;;;;;5018845;28;20052;-50
2022/08/01 08:35:29;;;;;;;10.27;8.00;;;25.60;60.10;;;;;;5045120;28;20103;-54
2022/08/01 08:38:18;;;;;;;10.35;8.48;;;25.70;60.40;;;;;;5053243;28;20068;-50
2022/08/01 08:40:57;;;;;;;10.02;7.55;;;25.80;60.10;;;;;;5053037;28;20724;-51
2022/08/01 08:43:29;;;;;;;11.30;8.93;;;25.80;59.90;;;;;;5038854;28;20036;-53
2022/08/01 08:45:56;;;;;;;8.93;7.72;;;25.90;59.60;;;;;;5041215;28;20033;-56
2022/08/01 08:48:26;;;;;;;9.27;7.93;;;26.00;59.20;;;;;;5042076;28;20037;-53
2022/08/01 08:50:55;;;;;;;10.38;8.75;;;26.00;58.90;;;;;;5028529;28;20040;-55
2022/08/01 08:53:26;;;;;;;10.13;9.05;;;26.10;58.90;;;;;;5025060;28;20049;-53
2022/08/01 08:56:02;;;;;;;8.98;8.07;;;26.20;58.80;;;;;;5031709;28;20033;-52
2022/08/01 08:58:37;;;;;;;9.35;8.45;;;26.00;58.50;;;;;;5028741;28;20091;-52
2022/08/01 09:01:06;;;;;;;12.77;8.52;;;26.00;58.50;;;;;;5039631;28;20108;-51
2022/08/01 09:03:35;;;;;;;10.00;9.00;;;26.00;58.50;;;;;;5034637;28;20464;-52
2022/08/01 09:06:03;;;;;;;9.75;8.70;;;26.10;58.30;;;;;;5038855;28;20061;-54
2022/08/01 09:08:30;;;;;;;9.82;8.05;;;26.10;58.40;;;;;;5032811;28;20041;-52
2022/08/01 09:10:58;;;;;;;8.55;7.43;;;26.10;58.10;;;;;;5027273;28;20045;-53
2022/08/01 09:13:25;;;;;;;8.07;7.30;;;26.20;58.40;;;;;;5038285;28;20033;-55
2022/08/01 09:15:55;;;;;;;6.57;5.97;;;26.20;57.30;;;;;;5044234;28;20535;-54
2022/08/01 09:18:35;;;;;;;6.25;5.70;;;26.30;57.10;;;;;;5047723;28;20052;-51
2022/08/01 09:21:25;;;;;;;5.75;5.15;;;26.40;55.80;;;;;;5035688;28;20508;-55
2022/08/01 09:23:54;;;;;;;6.25;5.65;;;26.50;56.30;;;;;;5040776;28;20428;-55
2022/08/01 09:26:30;;;;;;;7.15;6.43;;;26.50;56.20;;;;;;5052857;28;20453;-52
2022/08/01 09:29:00;;;;;;;;;;;26.60;55.90;;;;;;5048220;28;20042;-55
2022/08/01 09:31:29;;;;;;;7.65;6.85;;;26.70;56.70;;;;;;5042422;28;19921;-55
2022/08/01 09:34:13;;;;;;;8.45;7.03;;;26.80;56.20;;;;;;5039400;28;20120;-53
2022/08/01 09:36:55;;;;;;;7.18;6.40;;;27.00;55.50;;;;;;5032443;28;20038;-50
2022/08/01 09:39:29;;;;;;;5.72;4.95;;;27.00;55.10;;;;;;5035317;28;20037;-53
2022/08/01 09:42:01;;;;;;;6.15;5.55;;;27.10;54.60;;;;;;5049438;28;20043;-55
2022/08/01 09:44:44;;;;;;;5.50;4.97;;;27.20;54.00;;;;;;5032240;28;20053;-54
2022/08/01 09:47:23;;;;;;;;;;;27.20;53.60;;;;;;5031807;28;20043;-55
2022/08/01 09:49:56;;;;;;;4.20;3.42;;;27.40;55.00;;;;;;5033694;28;19925;-52
2022/08/01 09:52:27;;;;;;;3.40;3.10;;;27.40;54.20;;;;;;5032991;28;20042;-52
2022/08/01 09:54:56;;;;;;;3.42;2.65;;;27.40;54.20;;;;;;5032214;28;20401;-55
2022/08/01 09:57:26;;;;;;;3.78;3.05;;;27.50;53.90;;;;;;5031078;28;20048;-54
2022/08/01 10:00:03;;;;;;;2.90;2.45;;;27.40;53.50;;;;;;5047049;28;20033;-55
2022/08/01 10:02:41;;;;;;;4.15;3.83;;;27.30;54.10;;;;;;5040588;28;20517;-55
2022/08/01 10:05:12;;;;;;;4.03;3.50;;;27.20;53.90;;;;;;5038000;28;20068;-54
2022/08/01 10:07:58;;;;;;;2.60;2.40;;;27.20;54.20;;;;;;5044493;28;20462;-51
2022/08/01 10:10:25;;;;;;;3.03;2.20;;;27.20;53.10;;;;;;5028154;28;20038;-55
2022/08/01 10:12:58;;;;;;;2.45;2.25;;;27.20;53.70;;;;;;5029314;28;20053;-53
2022/08/01 10:15:27;;;;;;;2.13;1.83;;;27.30;53.50;;;;;;5037534;28;20384;-52
2022/08/01 10:18:06;;;;;;;2.10;1.95;;;27.30;53.60;;;;;;5035110;28;20042;-53
2022/08/01 10:20:47;;;;;;;1.85;1.63;;;27.40;53.90;;;;;;5040940;28;20056;-54
2022/08/01 10:23:18;;;;;;;1.13;1.00;;;27.50;53.30;;;;;;5031487;28;20742;-54
2022/08/01 10:25:49;;;;;;;1.52;0.75;;;27.60;52.00;;;;;;5036502;28;20063;-54
2022/08/01 10:28:26;;;;;;;1.20;1.10;;;27.60;50.70;;;;;;5032246;28;20208;-51
2022/08/01 10:30:56;;;;;;;0.93;0.82;;;27.70;50.10;;;;;;5031794;28;20042;-52
2022/08/01 10:33:24;;;;;;;1.10;1.00;;;27.80;50.10;;;;;;5030832;28;20098;-54
2022/08/01 10:36:11;;;;;;;0.80;0.80;;;27.80;50.10;;;;;;5035857;28;20127;-51
2022/08/01 10:38:41;;;;;;;0.80;0.80;;;27.90;50.30;;;;;;5022230;28;20125;-52
2022/08/01 10:41:09;;;;;;;1.70;0.95;;;27.90;50.10;;;;;;5047208;28;20056;-53
2022/08/01 10:43:36;;;;;;;1.15;1.00;;;27.90;50.20;;;;;;5029305;28;20041;-55
2022/08/01 10:46:04;;;;;;;0.90;0.90;;;28.00;50.00;;;;;;5036431;28;20034;-50
2022/08/01 10:49:03;;;;;;;0.60;0.60;;;28.00;49.40;;;;;;5032625;28;20080;-52
2022/08/01 10:51:34;;;;;;;0.95;0.60;;;28.10;48.60;;;;;;5035457;28;20044;-51
2022/08/01 10:54:24;;;;;;;1.23;0.80;;;28.10;48.70;;;;;;5026690;28;20045;-54
2022/08/01 10:57:00;;;;;;;2.35;0.85;;;28.10;48.30;;;;;;5040608;28;20072;-52
2022/08/01 10:59:29;;;;;;;1.52;0.68;;;28.20;48.30;;;;;;5051214;28;20105;-51
2022/08/01 11:02:33;;;;;;;0.88;0.80;;;28.20;47.70;;;;;;5044155;28;20037;-52
2022/08/01 11:05:23;;;;;;;1.80;1.05;;;28.20;47.40;;;;;;5037714;28;20041;-52
2022/08/01 11:07:54;;;;;;;1.00;1.00;;;28.30;47.40;;;;;;5042785;28;20045;-52
2022/08/01 11:10:36;;;;;;;0.93;0.80;;;28.30;47.50;;;;;;5041983;28;20076;-53
2022/08/01 11:13:08;;;;;;;0.90;0.90;;;28.30;47.00;;;;;;5035534;28;20128;-50
2022/08/01 11:15:38;;;;;;;1.52;1.38;;;28.40;47.30;;;;;;5040965;28;20045;-54
2022/08/01 11:18:28;;;;;;;1.48;0.98;;;28.40;46.70;;;;;;5050698;28;20124;-52
2022/08/01 11:21:02;;;;;;;0.95;0.93;;;28.40;46.00;;;;;;5036240;28;20045;-54
2022/08/01 11:23:53;;;;;;;2.17;0.88;;;28.50;46.00;;;;;;5040996;28;20144;-52
2022/08/01 11:26:26;;;;;;;0.98;0.95;;;28.50;46.20;;;;;;5011192;28;20046;-52
2022/08/01 11:29:25;;;;;;;1.10;1.08;;;28.60;46.40;;;;;;5011238;28;20074;-51
2022/08/01 11:32:12;;;;;;;0.65;0.65;;;28.60;46.50;;;;;;5012221;28;20053;-51
2022/08/01 11:34:56;;;;;;;1.13;1.10;;;28.70;46.50;;;;;;5039023;28;20050;-51
2022/08/01 11:37:26;;;;;;;0.80;0.80;;;28.90;44.90;;;;;;5011276;28;20122;-54
2022/08/01 11:40:15;;;;;;;0.90;0.90;;;29.00;45.70;;;;;;4996969;28;20048;-52
2022/08/01 11:42:47;;;;;;;1.02;0.95;;;29.10;45.10;;;;;;5037166;28;20040;-55
2022/08/01 11:45:16;;;;;;;0.85;0.85;;;29.10;44.90;;;;;;5036693;28;20728;-53
2022/08/01 11:47:46;;;;;;;1.58;0.95;;;29.20;44.40;;;;;;5013280;28;20045;-54
2022/08/01 11:50:35;;;;;;;1.25;1.15;;;29.10;44.10;;;;;;5022810;28;20556;-55
2022/08/01 11:53:05;;;;;;;1.17;1.08;;;29.00;44.20;;;;;;5025611;28;20045;-54
2022/08/01 11:55:34;;;;;;;0.80;0.80;;;28.90;44.10;;;;;;5025951;28;20049;-55
2022/08/01 11:58:09;;;;;;;1.20;0.60;;;28.90;44.20;;;;;;5036091;28;20034;-53
2022/08/01 12:00:54;;;;;;;1.15;1.05;;;28.80;44.40;;;;;;5038919;28;20045;-51
2022/08/01 12:03:35;;;;;;;1.02;1.00;;;28.80;45.00;;;;;;5014548;28;20038;-51
2022/08/01 12:06:07;;;;;;;1.02;1.02;;;28.70;44.60;;;;;;5008730;28;20452;-51
2022/08/01 12:08:39;;;;;;;0.82;0.82;;;28.80;44.80;;;;;;5041563;28;20371;-55
2022/08/01 12:11:06;;;;;;;0.68;0.63;;;28.80;44.60;;;;;;5048261;28;20544;-51
2022/08/01 12:13:43;;;;;;;1.77;1.15;;;28.90;44.70;;;;;;5040377;28;20103;-51
2022/08/01 12:16:13;;;;;;;1.40;1.30;;;29.00;43.80;;;;;;5033427;28;20053;-54
2022/08/01 12:18:42;;;;;;;1.40;1.30;;;29.10;44.10;;;;;;5037160;28;20042;-53
2022/08/01 12:21:13;;;;;;;1.60;1.33;;;29.20;43.80;;;;;;5043676;28;20045;-55
2022/08/01 12:23:42;;;;;;;1.40;1.30;;;29.30;43.60;;;;;;5033779;28;20067;-55
2022/08/01 12:26:09;;;;;;;2.00;1.17;;;29.40;43.20;;;;;;5032038;28;20092;-54
2022/08/01 12:28:56;;;;;;;2.17;1.13;;;29.60;43.50;;;;;;5039546;28;20040;-51
2022/08/01 12:31:31;;;;;;;1.15;1.05;;;29.70;43.50;;;;;;5045241;28;20044;-55
2022/08/01 12:33:58;;;;;;;3.45;1.30;;;29.80;42.50;;;;;;5053598;28;20045;-53
2022/08/01 12:36:29;;;;;;;1.20;1.10;;;30.00;42.30;;;;;;5032910;28;20685;-54
2022/08/01 12:38:59;;;;;;;0.90;0.90;;;30.10;42.60;;;;;;5044611;28;20091;-53
2022/08/01 12:41:28;;;;;;;1.25;1.15;;;30.20;42.70;;;;;;5045949;28;20076;-54
2022/08/01 12:43:59;;;;;;;1.08;0.75;;;30.30;42.70;;;;;;5038336;28;20537;-55
2022/08/01 12:46:27;;;;;;;2.00;0.95;;;30.30;42.30;;;;;;5027099;28;20034;-50
2022/08/01 12:48:54;;;;;;;1.17;1.00;;;30.20;42.40;;;;;;5033276;28;20041;-51
2022/08/01 12:51:23;;;;;;;1.25;1.10;;;30.20;42.70;;;;;;5046774;28;20053;-51
2022/08/01 12:53:53;;;;;;;1.38;1.25;;;30.10;42.60;;;;;;5034205;28;20075;-56
2022/08/01 12:56:32;;;;;;;1.45;0.85;;;30.10;42.80;;;;;;5033326;28;20046;-55
2022/08/01 12:59:20;;;;;;;1.05;1.05;;;30.10;43.00;;;;;;5033449;28;20045;-54
2022/08/01 13:01:52;;;;;;;1.80;1.50;;;30.10;43.00;;;;;;5021880;28;20049;-55
2022/08/01 13:04:21;;;;;;;0.80;0.80;;;30.10;43.30;;;;;;5029856;28;20041;-55
2022/08/01 13:07:03;;;;;;;1.20;1.10;;;30.10;43.40;;;;;;5037738;28;20045;-55
2022/08/01 13:09:32;;;;;;;1.20;1.13;;;30.10;43.60;;;;;;5033810;28;20410;-53
2022/08/01 13:12:08;;;;;;;3.22;1.67;;;30.10;43.50;;;;;;5033173;28;20045;-55